Huvudsida
METAR-TAF:

METAR-TAF

Flygplatser :

Sirri Island Airport

Sirri, Iran

latitud: 25-54-34N, longitud: 054-32-22E, höjd: 13 m

Aktuellt väderrapport

Denna rapport gjordes för 38 minuter sedan, klockan 13:00 UTC
Vind 8 kt från ost
Temperatur 27°C
Fuktighet 48%
Tryck 1014 hPa
Sikt 10 km eller mer
Inga moln under 1 500 m eller inga cumulonimbus

METAR: OIBS 121300Z 10008KT CAVOK 27/15 Q1014

Tid: 17:08 (13:38 UTC)


TAF: saknas

Aktuella väderrapporter och prognoser från 4000 flygplatser (METAR- och TAF-rapporter).

De tillgängliga stationerna syns som gula och röda prickar på kartan.

För musen över prickarna för att se namnen på stationerna.

Klicka sedan för att få väderrapporter och prognoser.

För att ändra kartan: Klicka på de gröna knapparna med ett svart kors på för att zooma in; den gröna knappen med ett streck på för att zooma ut; eller på de gröna pilarna för angränsande kartor.


METAR-TAF: